BIENTÔT MET'MAP
version 2.0 !

Prévue avant fin octobre,
la nouvelle version sera
plus belle, plus complète
et hébergée sur un serveur
3 fois plus puissant...
et toujours gratuite !


Pas compatible ?
Essayez la version Mobile !

SE CONNECTER : | S'inscrire | Disclaimer | Découvrir Orbifly |
Code OACI :

TAF - EGDY RNAS Yeovilton - 20 Feb 2020 11:30 UTC
Data Sources :     NOAA   


- Altitude de l'aérodrome : 75 ft
- Code IATA : YEO
- Pas de NOTAMs connus.


EGDY - RNAS Yeovilton

Dernier METAR connu : 2015/08/11 07:50 EGDY 110750Z AUTO 25001KT 9999 FEW160/// 13/12 Q1020
TAF TAF EGDY
Valide du 20 à 09h jusqu'au 20 à 18h UTC


200734Z 2009/2018 21020G30KT 7000 -RA SCT012 OVC015
TEMPO 2009/2013 4000 RA
BECMG 2010/2012 29015G25KT
PROB40
TEMPO 2010/2013 29020G30KT 3000 +RA SCT010
BECMG 2012/2014 9999 NSW SCT030
PROB30
TEMPO 2012/2016 7000 -SHRA SCT025

Source NOAA


MET'MAP, la Météo Aéronautique d'un coup d'oeil ! - Copyright ORBIFLY Décembre 2007

Développement & Programmation : Alexandra Zaïnal
Co-Développement : Marc-Olivier Méhu
Soutien technique & logistique : Manuel Goepfert
Conception & Financement : Baudouin d'Aumeries